Time;durP1;ratioP1;P1;durP2;ratioP2;P2;SDS_P1;SDS_P2;PMS_P1;PMS_P2;Temp;Humidity;BMP_temperature;BMP_pressure;BME280_temperature;BME280_humidity;BME280_pressure;Samples;Min_cycle;Max_cycle;Signal;HPM_P1;HPM_P2
2022/02/23 00:00:09;;;;;;;6.43;1.50;;;;;;;5.34;72.36;98684.03;4192395;28;20027;-72
2022/02/23 00:02:09;;;;;;;6.25;1.80;;;;;;;5.30;71.34;98685.06;4187180;28;20426;-72
2022/02/23 00:04:09;;;;;;;5.65;1.77;;;;;;;5.26;71.20;98698.63;4191098;28;20028;-72
2022/02/23 00:06:10;;;;;;;7.50;1.50;;;;;;;5.20;71.49;98704.66;4189538;28;20062;-72
2022/02/23 00:08:10;;;;;;;6.80;2.70;;;;;;;5.13;71.54;98710.72;4186650;28;20433;-72
2022/02/23 00:10:10;;;;;;;4.88;1.75;;;;;;;5.13;72.58;98720.84;4191555;28;20222;-72
2022/02/23 00:12:11;;;;;;;7.28;1.50;;;;;;;5.11;72.92;98723.13;4190356;28;20020;-72
2022/02/23 00:14:11;;;;;;;6.63;1.42;;;;;;;5.01;74.24;98725.16;4191176;28;20029;-72
2022/02/23 00:16:11;;;;;;;3.88;1.50;;;;;;;5.05;74.13;98733.53;4191464;28;20532;-72
2022/02/23 00:18:15;;;;;;;3.80;1.83;;;;;;;4.98;74.89;98730.50;4186975;28;20017;-72
2022/02/23 00:20:16;;;;;;;3.63;1.63;;;;;;;4.99;74.90;98743.88;4189062;28;20619;-72
2022/02/23 00:22:16;;;;;;;3.35;1.55;;;;;;;5.03;75.59;98752.22;4190484;28;20303;-72
2022/02/23 00:24:16;;;;;;;5.07;1.60;;;;;;;5.00;76.32;98742.75;4189682;28;20032;-72
2022/02/23 00:26:17;;;;;;;7.25;1.60;;;;;;;4.96;77.67;98758.25;4188832;28;20028;-72
2022/02/23 00:28:17;;;;;;;7.43;1.80;;;;;;;4.92;79.51;98756.53;4190885;28;20036;-72
2022/02/23 00:30:17;;;;;;;4.43;1.60;;;;;;;4.81;79.82;98769.81;4187395;28;20028;-72
2022/02/23 00:32:18;;;;;;;2.55;1.35;;;;;;;4.75;79.51;98768.41;4188499;28;20148;-72
2022/02/23 00:34:18;;;;;;;3.75;1.42;;;;;;;4.70;78.88;98777.63;4190798;28;20060;-72
2022/02/23 00:36:18;;;;;;;2.78;1.40;;;;;;;4.68;78.69;98782.63;4188851;28;20024;-72
2022/02/23 00:38:19;;;;;;;6.88;1.60;;;;;;;4.64;78.26;98789.94;4187821;28;20775;-72
2022/02/23 00:40:19;;;;;;;6.00;2.03;;;;;;;4.56;78.61;98799.00;4190808;28;20588;-72
2022/02/23 00:42:19;;;;;;;5.45;2.47;;;;;;;4.52;78.29;98798.03;4192330;28;20024;-72
2022/02/23 00:44:20;;;;;;;4.78;1.55;;;;;;;4.43;78.12;98803.56;4193185;28;20031;-72
2022/02/23 00:46:20;;;;;;;6.97;1.65;;;;;;;4.41;78.50;98811.31;4192167;28;20052;-72
2022/02/23 00:48:20;;;;;;;8.02;1.90;;;;;;;4.33;78.91;98825.03;4191216;28;20136;-72
2022/02/23 00:50:21;;;;;;;6.57;1.40;;;;;;;4.23;79.32;98815.25;4193799;28;20084;-72
2022/02/23 00:52:21;;;;;;;3.28;1.40;;;;;;;4.17;79.36;98811.88;4194205;28;20087;-72
2022/02/23 00:54:22;;;;;;;8.00;2.40;;;;;;;4.16;79.16;98817.69;4193061;28;20473;-72
2022/02/23 00:56:23;;;;;;;5.75;1.70;;;;;;;4.04;79.79;98829.31;4194270;28;20121;-72
2022/02/23 00:58:23;;;;;;;6.07;1.80;;;;;;;4.09;79.30;98826.41;4191520;28;20083;-72
2022/02/23 01:00:24;;;;;;;7.93;1.92;;;;;;;4.03;79.81;98841.41;4192241;28;20044;-72
2022/02/23 01:02:25;;;;;;;6.78;1.92;;;;;;;4.00;80.04;98836.59;4191826;28;20044;-72
2022/02/23 01:04:25;;;;;;;5.55;1.65;;;;;;;3.97;79.99;98847.38;4192298;28;20143;-72
2022/02/23 01:06:26;;;;;;;5.07;1.80;;;;;;;4.03;79.68;98846.88;4191537;28;20069;-72
2022/02/23 01:08:26;;;;;;;6.22;1.70;;;;;;;3.94;80.06;98849.63;4191766;28;20037;-72
2022/02/23 01:10:26;;;;;;;6.93;2.05;;;;;;;3.86;80.11;98852.38;4193020;28;20040;-72
2022/02/23 01:12:27;;;;;;;7.95;1.90;;;;;;;3.77;81.41;98852.41;4191302;28;20290;-72
2022/02/23 01:14:27;;;;;;;7.50;1.92;;;;;;;3.76;80.68;98839.03;4192392;28;20044;-72
2022/02/23 01:16:28;;;;;;;6.97;1.90;;;;;;;3.76;80.37;98842.59;4191890;28;20047;-72
2022/02/23 01:18:28;;;;;;;7.13;1.73;;;;;;;3.71;80.78;98855.63;4191078;28;20496;-72
2022/02/23 01:20:28;;;;;;;5.80;2.25;;;;;;;3.71;80.23;98853.69;4191022;28;20079;-72
2022/02/23 01:22:29;;;;;;;7.88;1.92;;;;;;;3.69;80.25;98864.16;4191982;28;20039;-72
2022/02/23 01:24:30;;;;;;;12.90;1.88;;;;;;;3.70;80.45;98860.28;4192807;28;20472;-72
2022/02/23 01:26:30;;;;;;;6.35;1.85;;;;;;;3.67;80.42;98864.50;4192269;28;20437;-72
2022/02/23 01:28:32;;;;;;;9.02;2.20;;;;;;;3.71;80.30;98869.31;4191330;28;20036;-72
2022/02/23 01:30:33;;;;;;;6.15;1.80;;;;;;;3.58;81.24;98871.09;4194160;28;20086;-72
2022/02/23 01:32:33;;;;;;;7.35;1.52;;;;;;;3.49;81.99;98875.78;4192660;28;20055;-72
2022/02/23 01:34:34;;;;;;;7.82;1.35;;;;;;;3.42;82.56;98887.19;4190479;28;20036;-72
2022/02/23 01:36:34;;;;;;;12.15;2.63;;;;;;;3.37;82.55;98890.88;4192374;28;20385;-72
2022/02/23 01:38:35;;;;;;;9.18;2.20;;;;;;;3.36;82.51;98883.78;4191039;28;20048;-72
2022/02/23 01:40:36;;;;;;;7.75;1.67;;;;;;;3.31;82.68;98881.22;4191263;28;20123;-73
2022/02/23 01:42:36;;;;;;;7.25;1.50;;;;;;;3.26;82.94;98884.09;4193931;28;20793;-72
2022/02/23 01:44:37;;;;;;;3.75;1.80;;;;;;;3.24;82.94;98886.38;4192394;28;20467;-72
2022/02/23 01:46:37;;;;;;;4.18;1.85;;;;;;;3.20;83.02;98899.06;4190378;28;20048;-73
2022/02/23 01:48:38;;;;;;;7.88;1.75;;;;;;;3.16;83.41;98900.81;4193213;28;20045;-72
2022/02/23 01:50:39;;;;;;;6.47;1.95;;;;;;;3.08;83.95;98910.63;4190608;28;20040;-72
2022/02/23 01:52:40;;;;;;;5.15;1.90;;;;;;;3.00;84.34;98905.94;4192325;28;20488;-72
2022/02/23 01:54:40;;;;;;;5.28;1.67;;;;;;;2.95;85.45;98908.00;4191004;28;20040;-72
2022/02/23 01:56:41;;;;;;;10.15;1.95;;;;;;;2.85;85.36;98925.50;4189738;28;20577;-73
2022/02/23 01:58:41;;;;;;;8.48;2.33;;;;;;;2.78;85.85;98914.22;4193491;28;20120;-72
2022/02/23 02:00:42;;;;;;;6.25;2.05;;;;;;;2.72;86.25;98924.47;4193121;28;20041;-72
2022/02/23 02:02:43;;;;;;;14.15;2.78;;;;;;;2.67;86.53;98923.81;4191052;28;20059;-72
2022/02/23 02:04:44;;;;;;;8.05;2.25;;;;;;;2.61;86.88;98925.88;4190830;28;20131;-72
2022/02/23 02:06:44;;;;;;;6.18;1.85;;;;;;;2.57;87.05;98927.63;4191281;28;20511;-72
2022/02/23 02:08:44;;;;;;;10.45;2.17;;;;;;;2.56;87.99;98934.19;4189629;28;20040;-72
2022/02/23 02:10:45;;;;;;;7.32;1.70;;;;;;;2.56;87.72;98933.41;4193344;28;20539;-72
2022/02/23 02:12:45;;;;;;;6.38;1.90;;;;;;;2.50;88.01;98944.47;4191887;28;20036;-72
2022/02/23 02:14:45;;;;;;;11.88;2.30;;;;;;;2.52;88.03;98944.16;4189192;28;20037;-72
2022/02/23 02:16:46;;;;;;;8.55;2.00;;;;;;;2.50;87.93;98940.94;4190875;28;20039;-72
2022/02/23 02:18:46;;;;;;;8.45;2.05;;;;;;;2.52;87.82;98946.88;4191148;28;20499;-72
2022/02/23 02:20:46;;;;;;;7.78;2.03;;;;;;;2.55;87.97;98948.97;4191961;28;20128;-72
2022/02/23 02:22:47;;;;;;;6.70;1.80;;;;;;;2.59;87.80;98946.44;4191460;28;20075;-72
2022/02/23 02:24:48;;;;;;;7.20;2.28;;;;;;;2.64;87.15;98941.63;4190785;28;20481;-72
2022/02/23 02:26:48;;;;;;;7.60;2.28;;;;;;;2.70;86.88;98936.84;4191500;28;20036;-73
2022/02/23 02:28:49;;;;;;;8.70;2.00;;;;;;;2.75;86.25;98939.44;4190649;28;20066;-72
2022/02/23 02:30:49;;;;;;;7.55;2.03;;;;;;;2.71;86.87;98942.00;4191651;28;20040;-72
2022/02/23 02:32:49;;;;;;;11.27;2.42;;;;;;;2.71;86.30;98942.00;4191545;28;20048;-73
2022/02/23 02:34:50;;;;;;;9.77;2.25;;;;;;;2.73;86.22;98950.69;4189258;28;20042;-72
2022/02/23 02:36:50;;;;;;;4.68;1.48;;;;;;;2.69;86.41;98957.09;4189142;28;20392;-72
2022/02/23 02:38:51;;;;;;;12.82;2.90;;;;;;;2.66;86.38;98952.25;4191990;28;20098;-72
2022/02/23 02:40:51;;;;;;;10.13;1.88;;;;;;;2.60;86.94;98961.72;4192520;28;20499;-72
2022/02/23 02:42:52;;;;;;;8.63;2.85;;;;;;;2.61;86.66;98958.66;4189567;28;20044;-72
2022/02/23 02:44:52;;;;;;;5.53;1.60;;;;;;;2.62;86.45;98959.47;4191787;28;20036;-72
2022/02/23 02:46:53;;;;;;;14.80;2.58;;;;;;;2.58;86.97;98966.69;4191606;28;20044;-72
2022/02/23 02:48:53;;;;;;;9.85;2.80;;;;;;;2.57;86.86;98968.63;4189084;28;20074;-72
2022/02/23 02:50:54;;;;;;;10.82;1.85;;;;;;;2.56;87.14;98968.91;4192744;28;20101;-72
2022/02/23 02:52:54;;;;;;;7.30;1.95;;;;;;;2.58;87.15;98967.50;4191239;28;20040;-72
2022/02/23 02:54:54;;;;;;;11.15;2.28;;;;;;;2.61;87.06;98977.78;4191289;28;20426;-72
2022/02/23 02:56:55;;;;;;;6.07;1.92;;;;;;;2.55;87.58;98979.03;4191689;28;20439;-72
2022/02/23 02:58:55;;;;;;;8.15;2.00;;;;;;;2.59;87.27;98976.50;4190887;28;20375;-72
2022/02/23 03:00:56;;;;;;;9.27;2.13;;;;;;;2.52;87.51;98979.66;4191843;28;20064;-72
2022/02/23 03:02:56;;;;;;;9.13;2.47;;;;;;;2.54;87.69;98983.69;4185348;28;20697;-72
2022/02/23 03:04:56;;;;;;;12.55;2.72;;;;;;;2.54;88.03;99002.00;4197433;28;20036;-72
2022/02/23 03:06:57;;;;;;;7.72;2.10;;;;;;;2.57;88.00;99001.41;4187787;28;20067;-72
2022/02/23 03:08:57;;;;;;;11.13;1.98;;;;;;;2.58;88.18;99000.28;4187174;28;20445;-72
2022/02/23 03:10:58;;;;;;;11.15;2.78;;;;;;;2.64;88.25;99009.13;4188035;28;20036;-73
2022/02/23 03:12:58;;;;;;;8.90;2.58;;;;;;;2.72;88.54;99009.16;4187814;28;20039;-72
2022/02/23 03:14:58;;;;;;;10.57;2.35;;;;;;;2.75;88.30;99008.56;4186861;28;20684;-72
2022/02/23 03:16:59;;;;;;;8.05;1.90;;;;;;;2.78;88.14;99012.59;4187909;28;20044;-72
2022/02/23 03:18:59;;;;;;;7.90;2.17;;;;;;;2.78;87.91;99020.78;4194804;28;20040;-72
2022/02/23 03:21:00;;;;;;;10.60;2.15;;;;;;;2.88;87.38;99011.50;4189374;28;20037;-72
2022/02/23 03:23:01;;;;;;;9.73;1.98;;;;;;;2.94;87.45;99022.00;4187960;28;20113;-72
2022/02/23 03:25:02;;;;;;;6.25;1.70;;;;;;;3.01;86.80;99033.28;4186766;28;20127;-72
2022/02/23 03:27:03;;;;;;;10.07;2.50;;;;;;;3.10;86.52;99025.13;4186298;28;20049;-72
2022/02/23 03:29:04;;;;;;;10.82;2.63;;;;;;;3.13;86.38;99031.88;4198968;28;20040;-72
2022/02/23 03:31:04;;;;;;;11.07;2.17;;;;;;;3.22;85.94;99029.97;4200689;28;20355;-72
2022/02/23 03:33:05;;;;;;;6.63;2.08;;;;;;;3.26;85.86;99022.78;4202758;28;20514;-72
2022/02/23 03:35:06;;;;;;;9.88;2.08;;;;;;;3.24;86.32;99031.31;4200875;28;20129;-72
2022/02/23 03:37:07;;;;;;;8.18;2.20;;;;;;;3.21;86.59;99031.91;4201049;28;20074;-72
2022/02/23 03:39:07;;;;;;;10.88;2.53;;;;;;;3.25;86.16;99030.16;4188087;28;20044;-73
2022/02/23 03:41:07;;;;;;;10.43;2.28;;;;;;;3.32;85.71;99038.72;4186520;28;20088;-72
2022/02/23 03:43:09;;;;;;;9.05;2.28;;;;;;;3.31;86.02;99028.91;4186432;28;20094;-73
2022/02/23 03:45:11;;;;;;;9.25;1.90;;;;;;;3.34;86.26;99022.00;4200183;28;20451;-72
2022/02/23 03:47:12;;;;;;;4.95;1.70;;;;;;;3.32;86.21;99027.78;4201643;28;20331;-72
2022/02/23 03:49:12;;;;;;;13.00;2.22;;;;;;;3.40;85.25;99039.09;4194131;28;20090;-72
2022/02/23 03:51:13;;;;;;;11.73;2.15;;;;;;;3.42;85.75;99040.38;4186871;28;20052;-72
2022/02/23 03:53:13;;;;;;;12.32;2.25;;;;;;;3.39;86.01;99035.50;4186562;28;20124;-72
2022/02/23 03:55:16;;;;;;;8.70;2.28;;;;;;;3.45;85.49;99039.72;4188809;28;20041;-72
2022/02/23 03:57:16;;;;;;;5.63;2.10;;;;;;;3.51;85.21;99051.34;4193314;28;20397;-72
2022/02/23 03:59:16;;;;;;;10.77;2.42;;;;;;;3.48;85.35;99046.50;4190602;28;20725;-72
2022/02/23 04:01:17;;;;;;;12.05;2.53;;;;;;;3.59;84.26;99069.72;4186669;28;20072;-72
2022/02/23 04:03:17;;;;;;;11.60;2.58;;;;;;;3.60;84.72;99061.19;4186183;28;20047;-72
2022/02/23 04:05:17;;;;;;;6.80;1.88;;;;;;;3.55;84.94;99057.78;4186130;28;20049;-72
2022/02/23 04:07:18;;;;;;;6.75;1.85;;;;;;;3.54;84.66;99064.38;4185600;28;20406;-72
2022/02/23 04:09:18;;;;;;;7.90;2.38;;;;;;;3.49;85.24;99064.53;4186395;28;20068;-73
2022/02/23 04:11:19;;;;;;;10.20;2.22;;;;;;;3.47;85.09;99064.03;4186344;28;20144;-72
2022/02/23 04:13:19;;;;;;;11.50;2.70;;;;;;;3.44;85.31;99070.13;4185961;28;20040;-72
2022/02/23 04:15:19;;;;;;;12.88;2.80;;;;;;;3.44;85.22;99079.16;4184716;28;20082;-72
2022/02/23 04:17:20;;;;;;;12.52;2.38;;;;;;;3.55;84.90;99076.91;4187044;28;20115;-72
2022/02/23 04:19:20;;;;;;;13.88;2.58;;;;;;;3.50;84.74;99077.88;4187488;28;20135;-72
2022/02/23 04:21:21;;;;;;;8.70;2.35;;;;;;;3.51;85.24;99095.91;4196201;28;20054;-72
2022/02/23 04:23:21;;;;;;;10.60;2.13;;;;;;;3.52;85.47;99102.19;4193329;28;20361;-73
2022/02/23 04:25:21;;;;;;;12.23;2.00;;;;;;;3.60;85.10;99107.69;4197957;28;20149;-72
2022/02/23 04:27:22;;;;;;;8.70;2.30;;;;;;;3.61;84.99;99114.78;4186992;28;20056;-72
2022/02/23 04:29:22;;;;;;;6.95;2.30;;;;;;;3.65;84.63;99113.03;4183290;28;20032;-72
2022/02/23 04:31:23;;;;;;;10.75;2.22;;;;;;;3.65;84.86;99125.91;4187378;28;20094;-72
2022/02/23 04:33:23;;;;;;;7.40;2.22;;;;;;;3.64;84.64;99129.75;4190344;28;20413;-72
2022/02/23 04:35:24;;;;;;;10.55;2.15;;;;;;;3.63;84.49;99133.59;4190159;28;20118;-72
2022/02/23 04:37:25;;;;;;;13.43;2.65;;;;;;;3.58;84.80;99131.03;4186853;28;20055;-73
2022/02/23 04:39:25;;;;;;;5.25;1.80;;;;;;;3.63;84.57;99145.34;4189439;28;20083;-72
2022/02/23 04:41:25;;;;;;;12.40;2.25;;;;;;;3.68;84.33;99133.47;4190053;28;20141;-72
2022/02/23 04:43:26;;;;;;;7.60;2.78;;;;;;;3.64;85.02;99149.75;4189006;28;20066;-73
2022/02/23 04:45:27;;;;;;;7.97;2.38;;;;;;;3.62;85.02;99151.97;4189612;28;20036;-72
2022/02/23 04:47:29;;;;;;;10.63;3.03;;;;;;;3.69;84.77;99156.19;4187110;28;20439;-72
2022/02/23 04:49:29;;;;;;;9.23;2.60;;;;;;;3.72;84.53;99164.56;4189543;28;20039;-72
2022/02/23 04:51:30;;;;;;;13.23;2.75;;;;;;;3.73;84.28;99168.94;4191301;28;20395;-72
2022/02/23 04:53:31;;;;;;;11.82;3.03;;;;;;;3.64;84.83;99177.09;4189123;28;20082;-72
2022/02/23 04:55:31;;;;;;;8.00;2.33;;;;;;;3.58;85.01;99183.03;4188356;28;20048;-72
2022/02/23 04:57:31;;;;;;;4.82;1.98;;;;;;;3.68;84.72;99193.69;4189358;28;20110;-72
2022/02/23 04:59:32;;;;;;;7.75;3.10;;;;;;;3.65;84.16;99189.66;4191994;28;20710;-72
2022/02/23 05:01:32;;;;;;;5.32;2.08;;;;;;;3.64;84.92;99192.69;4191436;28;20041;-72
2022/02/23 05:03:33;;;;;;;13.60;2.60;;;;;;;3.67;84.56;99194.81;4190201;28;20048;-73
2022/02/23 05:05:33;;;;;;;6.88;2.83;;;;;;;3.67;84.78;99192.06;4188887;28;20384;-72
2022/02/23 05:07:34;;;;;;;6.93;2.47;;;;;;;3.69;84.90;99199.97;4189709;28;20041;-72
2022/02/23 05:09:34;;;;;;;9.02;2.45;;;;;;;3.67;84.91;99194.81;4190253;28;20040;-72
2022/02/23 05:11:35;;;;;;;10.00;2.03;;;;;;;3.63;85.14;99196.53;4185405;28;20071;-72
2022/02/23 05:13:35;;;;;;;9.02;2.40;;;;;;;3.62;85.03;99203.94;4191108;28;20470;-72
2022/02/23 05:15:36;;;;;;;11.65;2.45;;;;;;;3.62;85.04;99216.81;4186811;28;20095;-72
2022/02/23 05:17:38;;;;;;;8.65;2.50;;;;;;;3.57;85.35;99216.97;4187181;28;20551;-72
2022/02/23 05:19:39;;;;;;;15.20;3.95;;;;;;;3.54;85.17;99217.59;4181526;28;20507;-72
2022/02/23 05:21:39;;;;;;;10.52;2.28;;;;;;;3.58;85.50;99224.06;4185869;28;20117;-72
2022/02/23 05:23:39;;;;;;;8.77;2.50;;;;;;;3.54;85.73;99220.31;4188615;28;20115;-72
2022/02/23 05:25:40;;;;;;;8.48;2.75;;;;;;;3.40;86.59;99227.81;4185376;28;20527;-72
2022/02/23 05:27:40;;;;;;;9.77;2.53;;;;;;;3.30;87.68;99235.16;4191921;28;20098;-72
2022/02/23 05:29:41;;;;;;;13.80;2.95;;;;;;;3.29;87.30;99227.25;4190887;28;20079;-73
2022/02/23 05:31:41;;;;;;;6.60;2.35;;;;;;;3.26;87.31;99236.91;4191592;28;20450;-73
2022/02/23 05:33:41;;;;;;;9.25;2.42;;;;;;;3.19;87.71;99244.72;4193765;28;20115;-73
2022/02/23 05:35:42;;;;;;;5.80;2.65;;;;;;;3.16;87.96;99247.28;4189823;28;20044;-73
2022/02/23 05:37:42;;;;;;;10.10;2.35;;;;;;;3.19;88.00;99249.38;4191340;28;20429;-72
2022/02/23 05:39:42;;;;;;;5.45;2.95;;;;;;;3.21;87.35;99252.63;4203073;28;20036;-72
2022/02/23 05:41:43;;;;;;;10.43;2.40;;;;;;;3.23;87.37;99267.63;4203590;28;20244;-72
2022/02/23 05:43:43;;;;;;;12.50;3.10;;;;;;;3.22;87.46;99265.97;4203049;28;20067;-73
2022/02/23 05:45:44;;;;;;;8.65;3.08;;;;;;;3.27;87.58;99257.66;4200232;28;20047;-72
2022/02/23 05:47:44;;;;;;;5.82;1.95;;;;;;;3.22;87.48;99262.44;4188038;28;20424;-72
2022/02/23 05:49:44;;;;;;;9.13;2.53;;;;;;;3.23;87.95;99267.63;4188292;28;20247;-72
2022/02/23 05:51:48;;;;;;;10.60;2.40;;;;;;;3.31;87.42;99271.50;4188188;28;20555;-72
2022/02/23 05:53:48;;;;;;;7.72;2.42;;;;;;;3.28;87.26;99267.47;4188619;28;20068;-72
2022/02/23 05:55:48;;;;;;;5.90;2.38;;;;;;;3.26;87.41;99280.66;4131896;28;20519;-72
2022/02/23 05:57:49;;;;;;;8.90;2.63;;;;;;;3.28;87.29;99294.00;4187293;28;20032;-72
2022/02/23 05:59:50;;;;;;;5.85;2.25;;;;;;;3.33;86.93;99288.44;4192343;28;20392;-72
2022/02/23 06:01:50;;;;;;;10.23;2.70;;;;;;;3.30;86.86;99291.78;4196877;28;20032;-73
2022/02/23 06:03:51;;;;;;;6.28;2.00;;;;;;;3.36;86.53;99287.81;4202716;28;20043;-72
2022/02/23 06:05:51;;;;;;;7.50;2.42;;;;;;;3.37;86.52;99294.88;4197881;28;20033;-72
2022/02/23 06:07:52;;;;;;;8.10;2.58;;;;;;;3.34;86.30;99295.53;4188680;28;20090;-72
2022/02/23 06:09:52;;;;;;;6.32;2.10;;;;;;;3.32;86.12;99308.72;4201376;28;20051;-73
2022/02/23 06:11:52;;;;;;;6.40;2.33;;;;;;;3.33;86.01;99313.06;4188086;28;20542;-72
2022/02/23 06:13:53;;;;;;;11.77;2.92;;;;;;;3.32;85.35;99305.97;4187894;28;20036;-72
2022/02/23 06:15:53;;;;;;;17.70;2.78;;;;;;;3.27;85.64;99308.81;4200946;28;20044;-72
2022/02/23 06:17:54;;;;;;;7.65;2.53;;;;;;;3.35;84.71;99310.81;4187696;28;20051;-72
2022/02/23 06:19:55;;;;;;;11.90;2.75;;;;;;;3.26;85.16;99312.66;4194766;28;20040;-72
2022/02/23 06:21:55;;;;;;;10.15;2.60;;;;;;;3.33;84.01;99310.31;4190078;28;20250;-72
2022/02/23 06:23:56;;;;;;;5.35;2.78;;;;;;;3.31;83.83;99318.00;4198545;28;20054;-72
2022/02/23 06:25:56;;;;;;;6.97;2.63;;;;;;;3.28;83.79;99333.13;4189144;28;20420;-73
2022/02/23 06:27:56;;;;;;;7.38;2.85;;;;;;;3.23;83.80;99326.97;4186858;28;20469;-72
2022/02/23 06:29:57;;;;;;;7.03;3.03;;;;;;;3.17;83.91;99339.13;4187859;28;20052;-72
2022/02/23 06:32:05;;;;;;;7.25;3.08;;;;;;;3.15;84.14;99346.84;4187783;28;20044;-72
2022/02/23 06:34:06;;;;;;;4.50;2.58;;;;;;;3.09;84.56;99341.47;4187790;28;20072;-72
2022/02/23 06:36:06;;;;;;;9.48;3.80;;;;;;;3.04;84.43;99336.13;4188056;28;20074;-72
2022/02/23 06:38:07;;;;;;;6.47;2.30;;;;;;;2.97;84.94;99345.84;4201509;28;20054;-72
2022/02/23 06:40:08;;;;;;;9.77;2.67;;;;;;;2.92;85.03;99335.84;4195895;28;20075;-73
2022/02/23 06:42:08;;;;;;;6.43;2.47;;;;;;;2.90;85.20;99340.00;4187252;28;20344;-73
2022/02/23 06:44:09;;;;;;;7.32;3.22;;;;;;;2.86;85.13;99336.25;4187585;28;20241;-73
2022/02/23 06:46:10;;;;;;;9.68;2.78;;;;;;;2.91;84.60;99342.44;4187896;28;20033;-72
2022/02/23 06:48:11;;;;;;;5.93;2.80;;;;;;;2.89;84.61;99349.31;4186713;28;20111;-72
2022/02/23 06:50:11;;;;;;;13.27;4.78;;;;;;;2.87;84.80;99360.56;4187449;28;20071;-73
2022/02/23 06:52:13;;;;;;;7.28;2.95;;;;;;;2.90;85.20;99353.69;4187724;28;20020;-72
2022/02/23 06:54:14;;;;;;;9.93;3.55;;;;;;;2.95;84.10;99359.84;4194138;28;20435;-72
2022/02/23 06:56:15;;;;;;;8.63;3.55;;;;;;;3.01;83.86;99366.00;4202646;28;20085;-73
2022/02/23 06:58:15;;;;;;;8.93;4.03;;;;;;;3.05;83.42;99367.81;4195244;28;20050;-72
2022/02/23 07:00:16;;;;;;;15.50;6.78;;;;;;;3.08;83.51;99369.94;4191872;28;20040;-73
2022/02/23 07:02:16;;;;;;;22.33;11.48;;;;;;;3.14;82.73;99365.16;4196971;28;20114;-72
2022/02/23 07:04:17;;;;;;;8.63;3.88;;;;;;;3.16;82.88;99370.34;4186994;28;20137;-72
2022/02/23 07:06:17;;;;;;;10.10;3.65;;;;;;;3.18;82.76;99373.56;4186530;28;20044;-72
2022/02/23 07:08:18;;;;;;;8.52;2.88;;;;;;;3.15;82.90;99369.53;4186628;28;20028;-73
2022/02/23 07:10:23;;;;;;;10.45;2.88;;;;;;;3.20;82.64;99382.25;4187158;28;20082;-72
2022/02/23 07:12:25;;;;;;;9.75;2.65;;;;;;;3.20;82.21;99377.59;4187234;28;20037;-72
2022/02/23 07:14:25;;;;;;;7.43;2.30;;;;;;;3.21;81.90;99381.94;4185907;28;20044;-72
2022/02/23 07:16:25;;;;;;;13.35;3.10;;;;;;;3.24;81.96;99386.81;4187200;28;20074;-72
2022/02/23 07:18:28;;;;;;;11.43;3.70;;;;;;;3.27;81.42;99391.66;4186105;28;20055;-72
2022/02/23 07:20:28;;;;;;;13.65;5.07;;;;;;;3.29;81.19;99396.81;4187103;28;20083;-72
2022/02/23 07:22:29;;;;;;;8.07;4.57;;;;;;;3.25;81.15;99402.13;4186937;28;20468;-72
2022/02/23 07:24:31;;;;;;;8.90;4.90;;;;;;;3.26;80.88;99417.41;4187274;28;20075;-72
2022/02/23 07:26:32;;;;;;;9.90;5.03;;;;;;;3.28;81.46;99412.44;4194961;28;20048;-72
2022/02/23 07:28:32;;;;;;;10.68;4.13;;;;;;;3.34;80.82;99413.13;4202090;28;20052;-73
2022/02/23 07:30:32;;;;;;;14.57;4.68;;;;;;;3.37;80.26;99418.00;4203405;28;20071;-72
2022/02/23 07:32:34;;;;;;;8.13;3.80;;;;;;;3.39;79.86;99415.75;4201322;28;20032;-72
2022/02/23 07:34:37;;;;;;;10.70;4.35;;;;;;;3.43;79.74;99418.69;4201933;28;20522;-72
2022/02/23 07:36:37;;;;;;;10.75;3.60;;;;;;;3.41;80.03;99429.94;4188935;28;20426;-73
2022/02/23 07:38:38;;;;;;;11.43;3.95;;;;;;;3.52;78.95;99438.72;4187282;28;20095;-72
2022/02/23 07:40:39;;;;;;;10.52;3.25;;;;;;;3.63;77.42;99434.63;4186244;28;20087;-73
2022/02/23 07:42:40;;;;;;;11.75;3.70;;;;;;;3.65;77.93;99444.19;4198754;28;20075;-72
2022/02/23 07:44:41;;;;;;;11.88;3.83;;;;;;;3.80;77.64;99445.72;4198537;28;20073;-72
2022/02/23 07:46:41;;;;;;;7.53;3.38;;;;;;;3.83;77.42;99444.31;4200914;28;20317;-72
2022/02/23 07:48:41;;;;;;;8.32;2.63;;;;;;;3.86;77.46;99449.16;4201391;28;20101;-72
2022/02/23 07:50:42;;;;;;;9.63;2.95;;;;;;;3.89;77.37;99451.28;4201802;28;20040;-72
2022/02/23 07:52:42;;;;;;;12.65;3.50;;;;;;;3.91;77.10;99457.25;4198575;28;20462;-72
2022/02/23 07:54:43;;;;;;;9.35;2.35;;;;;;;3.92;77.60;99453.41;4199101;28;20039;-72
2022/02/23 07:56:44;;;;;;;7.15;2.90;;;;;;;3.95;77.00;99461.00;4201348;28;20599;-72
2022/02/23 07:58:44;;;;;;;9.02;3.30;;;;;;;4.02;77.14;99457.81;4190434;28;20346;-72
2022/02/23 08:00:45;;;;;;;7.20;2.80;;;;;;;4.07;76.73;99460.44;4186336;28;20498;-72
2022/02/23 08:02:46;;;;;;;10.18;2.38;;;;;;;4.02;77.41;99474.25;4186487;28;20048;-72
2022/02/23 08:04:51;;;;;;;7.60;2.67;;;;;;;4.06;77.90;99469.78;4186484;28;20123;-72
2022/02/23 08:06:52;;;;;;;6.55;3.22;;;;;;;4.04;77.33;99478.28;4185761;28;20041;-72
2022/02/23 08:08:56;;;;;;;9.85;2.63;;;;;;;4.11;77.35;99469.66;4186394;28;20044;-72
2022/02/23 08:10:56;;;;;;;8.52;2.28;;;;;;;4.14;76.50;99480.00;4187123;28;20524;-72
2022/02/23 08:12:58;;;;;;;15.38;2.90;;;;;;;4.23;76.38;99483.59;4198884;28;20051;-72
2022/02/23 08:19:30;;;;;;;6.38;2.85;;;;;;;4.23;76.48;99475.38;4189708;28;20400;-72
2022/02/23 08:19:38;;;;;;;8.38;2.75;;;;;;;4.24;76.66;99485.22;4201801;28;20489;-73
2022/02/23 08:21:38;;;;;;;9.25;3.17;;;;;;;4.34;77.57;99487.69;4202565;28;20036;-72
2022/02/23 08:23:43;;;;;;;11.25;3.60;;;;;;;4.47;76.10;99492.31;4189082;28;20040;-72
2022/02/23 08:25:44;;;;;;;8.27;2.80;;;;;;;4.52;75.70;99491.34;4186311;28;20045;-72
2022/02/23 08:27:44;;;;;;;5.70;2.28;;;;;;;4.55;74.80;99488.00;4195287;28;20135;-72
2022/02/23 08:29:45;;;;;;;9.65;2.42;;;;;;;4.53;75.99;99492.97;4200607;28;20040;-72
2022/02/23 08:31:46;;;;;;;5.95;2.40;;;;;;;4.63;74.83;99503.66;4197139;28;20461;-72
2022/02/23 08:33:46;;;;;;;5.03;2.53;;;;;;;4.67;74.63;99490.16;4186042;28;20101;-72
2022/02/23 08:35:47;;;;;;;8.05;2.47;;;;;;;4.65;74.12;99493.22;4186181;28;20048;-72
2022/02/23 08:37:47;;;;;;;8.32;3.05;;;;;;;4.72;74.11;99488.09;4185849;28;20048;-72
2022/02/23 08:39:48;;;;;;;16.80;4.85;;;;;;;4.82;74.28;99497.19;4193448;28;20075;-72
2022/02/23 08:41:49;;;;;;;12.68;5.20;;;;;;;4.83;75.52;99496.06;4202287;28;20052;-72
2022/02/23 08:43:50;;;;;;;7.38;2.60;;;;;;;4.87;74.99;99488.78;4200455;28;20048;-72
2022/02/23 08:45:51;;;;;;;14.60;5.10;;;;;;;4.90;73.94;99493.66;4197325;28;20483;-72
2022/02/23 08:47:51;;;;;;;14.43;6.80;;;;;;;4.97;74.09;99491.28;4193917;28;20055;-72
2022/02/23 08:49:52;;;;;;;13.07;4.25;;;;;;;4.99;73.93;99492.56;4202195;28;20083;-73
2022/02/23 08:51:53;;;;;;;9.88;3.60;;;;;;;5.05;72.02;99496.00;4189075;28;20066;-72
2022/02/23 08:53:53;;;;;;;5.75;3.08;;;;;;;5.05;72.93;99487.78;4200375;28;20040;-72
2022/02/23 08:55:53;;;;;;;7.72;2.92;;;;;;;5.04;72.57;99486.94;4202140;28;20536;-72
2022/02/23 08:57:54;;;;;;;8.35;2.75;;;;;;;5.13;72.46;99492.47;4199593;28;20044;-72
2022/02/23 08:59:55;;;;;;;8.00;2.65;;;;;;;5.19;71.31;99487.63;4201012;28;20093;-72
2022/02/23 09:01:55;;;;;;;10.00;3.85;;;;;;;5.24;72.30;99493.78;4190631;28;20117;-72
2022/02/23 09:03:57;;;;;;;5.70;2.63;;;;;;;5.35;71.35;99488.81;4189653;28;20072;-72
2022/02/23 09:05:57;;;;;;;10.95;3.42;;;;;;;5.47;71.32;99491.78;4189467;28;20200;-72
2022/02/23 09:07:58;;;;;;;11.70;3.13;;;;;;;5.34;68.26;99496.25;4187961;28;20074;-72
2022/02/23 09:09:58;;;;;;;10.40;2.60;;;;;;;5.30;70.06;99497.22;4197454;28;20502;-72
2022/02/23 09:11:58;;;;;;;14.35;2.97;;;;;;;5.32;70.61;99487.53;4189237;28;20326;-72
2022/02/23 09:13:59;;;;;;;6.47;2.22;;;;;;;5.37;69.66;99489.28;4189280;28;20252;-72
2022/02/23 09:15:59;;;;;;;6.22;2.22;;;;;;;5.37;70.95;99492.03;4195511;28;20085;-72
2022/02/23 09:17:59;;;;;;;14.63;2.70;;;;;;;5.29;69.95;99493.63;4203398;28;20117;-72
2022/02/23 09:20:00;;;;;;;5.30;1.92;;;;;;;5.31;69.39;99493.34;4191775;28;20079;-72
2022/02/23 09:22:00;;;;;;;7.78;2.45;;;;;;;5.27;70.18;99489.59;4188823;28;20533;-72
2022/02/23 09:24:01;;;;;;;6.43;4.60;;;;;;;5.28;69.65;99497.50;4189067;28;20521;-72
2022/02/23 09:26:04;;;;;;;9.23;2.55;;;;;;;5.29;70.20;99485.41;4193532;28;20036;-72
2022/02/23 09:28:05;;;;;;;5.97;2.20;;;;;;;5.32;70.28;99484.78;4202996;28;20039;-72
2022/02/23 09:30:12;;;;;;;6.47;2.63;;;;;;;5.42;70.12;99493.84;4204624;28;20468;-73
2022/02/23 09:32:15;;;;;;;8.18;2.88;;;;;;;5.41;70.35;99492.22;4187876;28;20063;-73
2022/02/23 09:34:19;;;;;;;9.93;3.03;;;;;;;5.54;70.85;99494.81;4188644;28;20075;-73